Aeroporto :
LOGIN :

Iscrizione | Disclaimer

   EN    FR    IT 

 










Sommario :    VFR   VFR Marginale   IFR   IFR Intensivo   IFR Molto Intensivo
Visibilità : 
Base nubi : 
>= 8 km
>= 3000ft
5 / 8 km
1000 / 3000 ft
1500m / 5 km
500 / 1000 ft
800 / 1500m
200 / 500 ft
< 800m
< 200 ft
Simboli :   Temporali  Nebbia  Neve Forte  Precipitazioni Forti  Vento > 20 kt
SIGMETs :   Varie  Temporali  Ghiacco  Turbolenza  Onda orograficha  Ceneri Vulcaniche






- Altitudine del aeroporto : 154 ft
- Codice IATA : SZZ


EPSC - Szczecin Goleniow

ULTIMO METAR :
  • 311930Z 13010KT 2200 -DZ BR BKN002 OVC003 10/10 Q1020

METARs OBSOLETI :
  • 311900Z 14011KT 4700 BR BKN002 OVC003 10/10 Q1020
  • 311830Z 14013KT 7000 BKN003 OVC004 11/10 Q1020
  • 311800Z 14010KT 9000 OVC003 11/10 Q1020
  • 311730Z 14013KT 5000 BR OVC002 11/10 Q1020
  • 311700Z 14012KT 6000 -RA SCT002 OVC003 11/10 Q1020

TAF TAF EPSC
Valido dal 31 a 18 ore il 01 a 18 ore UTC


311730Z 3118/0118 15010KT 7000 BKN005
TEMPO 3118/0106 3000 -DZ BR OVC002
TEMPO 0106/0118 4000 RADZ BR BKN003



MetMap, La meteo Aeronautica in un colpo d'occhio ! - Copyright ORBIFLY Dicembre 2007 - Disclaimer

ORBIFLY MET'MAP TEAM :

Programmazione e sviluppo : Alexandra Zaïnal
Concezione : Baudouin d'Aumeries
Aiuto per la programmazione : Marc-Olivier Méhu
Supporto tecnico e logistico : Manuel Goepfert
Aiuto per la traduzione : Arnaldo La Scala

Contatto : metmap@orbifly.com




FONTI E CREDITI :

   NOAA